createdAt,value
2022-11-13T00:02:23.875Z,18.67
2022-11-13T00:07:45.584Z,18.65
2022-11-13T00:13:07.259Z,18.63
2022-11-13T00:18:32.474Z,18.60
2022-11-13T00:23:56.060Z,18.58
2022-11-13T00:29:17.754Z,18.57
2022-11-13T00:34:49.212Z,18.54
2022-11-13T00:40:11.230Z,18.53
2022-11-13T00:45:32.875Z,18.52
2022-11-13T00:50:55.142Z,18.49
2022-11-13T00:56:16.831Z,18.49
2022-11-13T01:01:38.538Z,18.48
2022-11-13T01:07:00.398Z,18.46
2022-11-13T01:12:22.204Z,18.43
2022-11-13T01:17:43.866Z,18.43
2022-11-13T01:23:05.612Z,18.41
2022-11-13T01:28:27.617Z,18.40
2022-11-13T01:33:49.753Z,18.37
2022-11-13T01:39:12.424Z,18.36
2022-11-13T01:44:53.820Z,18.37
2022-11-13T01:50:15.510Z,18.34
2022-11-13T01:55:37.181Z,18.32
2022-11-13T02:00:58.936Z,18.31
2022-11-13T02:06:22.112Z,18.31
2022-11-13T02:11:44.267Z,18.28
2022-11-13T02:17:11.539Z,18.27
2022-11-13T02:22:41.535Z,18.26
2022-11-13T02:28:03.185Z,18.25
2022-11-13T02:33:30.232Z,18.24
2022-11-13T02:38:54.183Z,18.23
2022-11-13T02:44:15.895Z,18.22
2022-11-13T02:49:37.585Z,18.20
2022-11-13T02:54:59.334Z,18.20
2022-11-13T03:00:21.010Z,18.20
2022-11-13T03:05:42.672Z,18.18
2022-11-13T03:11:09.770Z,18.18
2022-11-13T03:16:31.480Z,18.15
2022-11-13T03:21:53.146Z,18.15
2022-11-13T03:27:14.938Z,18.14
2022-11-13T03:32:36.605Z,18.13
2022-11-13T03:37:58.247Z,18.12
2022-11-13T03:43:20.143Z,18.11
2022-11-13T03:48:41.883Z,18.11
2022-11-13T03:54:04.148Z,18.11
2022-11-13T03:59:25.782Z,18.09
2022-11-13T04:04:47.490Z,18.09
2022-11-13T04:10:09.358Z,18.07
2022-11-13T04:15:31.134Z,18.07
2022-11-13T04:20:52.805Z,18.07
2022-11-13T04:26:14.526Z,18.06
2022-11-13T04:31:36.203Z,18.05
2022-11-13T04:36:58.179Z,18.03
2022-11-13T04:42:38.298Z,18.01
2022-11-13T04:48:00.010Z,18.00
2022-11-13T04:53:21.668Z,17.99
2022-11-13T04:58:43.415Z,17.98
2022-11-13T05:04:05.213Z,17.97
2022-11-13T05:09:26.889Z,17.98
2022-11-13T05:14:48.943Z,17.97
2022-11-13T05:20:11.395Z,17.95
2022-11-13T05:25:33.054Z,17.94
2022-11-13T05:31:02.382Z,17.92
2022-11-13T05:36:24.099Z,17.91
2022-11-13T05:41:45.779Z,17.90
2022-11-13T05:47:07.447Z,17.91
2022-11-13T05:52:29.117Z,17.91
2022-11-13T05:57:50.767Z,17.90
2022-11-13T06:03:12.394Z,17.88
2022-11-13T06:08:34.235Z,17.89
2022-11-13T06:13:56.901Z,17.86
2022-11-13T06:19:18.551Z,17.87
2022-11-13T06:24:40.181Z,17.83
2022-11-13T06:30:01.819Z,17.83
2022-11-13T06:35:23.468Z,17.83
2022-11-13T06:40:45.205Z,17.83
2022-11-13T06:46:11.753Z,17.95
2022-11-13T06:51:33.724Z,18.34
2022-11-13T06:56:55.482Z,18.87
2022-11-13T07:02:17.198Z,19.30
2022-11-13T07:07:38.930Z,19.55
2022-11-13T07:13:00.777Z,19.65
2022-11-13T07:18:23.978Z,19.65
2022-11-13T07:23:48.434Z,19.60
2022-11-13T07:29:10.112Z,19.51
2022-11-13T07:34:31.775Z,20.06
2022-11-13T07:39:53.467Z,21.29
2022-11-13T07:45:15.129Z,21.30
2022-11-13T07:50:38.806Z,21.27
2022-11-13T07:56:02.091Z,21.25
2022-11-13T08:01:23.926Z,21.09
2022-11-13T08:06:45.636Z,20.50
2022-11-13T08:12:07.659Z,20.18
2022-11-13T08:17:29.380Z,20.45
2022-11-13T08:22:51.509Z,20.10
2022-11-13T08:28:13.736Z,19.76
2022-11-13T08:33:35.393Z,19.53
2022-11-13T08:38:57.136Z,19.37
2022-11-13T08:44:18.893Z,19.26
2022-11-13T08:49:40.545Z,19.13
2022-11-13T08:55:02.176Z,19.05
2022-11-13T09:00:23.897Z,19.00
2022-11-13T09:05:45.582Z,18.97
2022-11-13T09:11:07.399Z,18.94
2022-11-13T09:16:29.126Z,18.89
2022-11-13T09:21:51.929Z,18.85
2022-11-13T09:27:13.656Z,18.80
2022-11-13T09:32:35.465Z,18.74
2022-11-13T09:37:57.148Z,18.70
2022-11-13T09:43:35.334Z,18.71
2022-11-13T09:49:07.117Z,18.70
2022-11-13T09:54:29.058Z,18.68
2022-11-13T10:00:07.283Z,18.67
2022-11-13T10:05:34.718Z,18.65
2022-11-13T10:11:16.402Z,18.64
2022-11-13T10:16:56.235Z,18.61
2022-11-13T10:22:32.857Z,18.62
2022-11-13T10:28:21.428Z,18.58
2022-11-13T10:33:44.697Z,18.57
2022-11-13T10:39:09.079Z,18.58
2022-11-13T10:44:37.992Z,18.58
2022-11-13T10:50:19.011Z,18.59
2022-11-13T10:55:41.464Z,18.59
2022-11-13T11:01:14.829Z,18.60
2022-11-13T11:12:30.706Z,18.58
2022-11-13T11:17:59.577Z,18.56
2022-11-13T11:24:03.153Z,18.58
2022-11-13T11:29:39.629Z,18.58
2022-11-13T11:35:12.616Z,18.57
2022-11-13T11:40:42.522Z,18.57
2022-11-13T11:46:04.772Z,18.57
2022-11-13T11:51:41.290Z,18.58
2022-11-13T11:57:38.478Z,18.55
2022-11-13T12:03:00.121Z,18.46
2022-11-13T12:08:37.926Z,18.50
2022-11-13T12:14:30.382Z,18.48
2022-11-13T12:20:26.250Z,18.45
2022-11-13T12:26:13.659Z,18.43
2022-11-13T12:31:41.066Z,18.41
2022-11-13T12:37:10.301Z,18.42
2022-11-13T12:42:55.273Z,18.40
2022-11-13T12:48:16.915Z,18.37
2022-11-13T12:53:53.497Z,18.38
2022-11-13T12:59:30.735Z,18.39
2022-11-13T13:05:19.453Z,18.51
2022-11-13T13:10:53.054Z,18.64
2022-11-13T13:16:24.184Z,18.79
2022-11-13T13:21:45.895Z,18.91
2022-11-13T13:27:25.419Z,19.02
2022-11-13T13:33:19.257Z,19.02
2022-11-13T13:38:56.041Z,19.02
2022-11-13T13:44:35.970Z,19.00
2022-11-13T13:49:58.342Z,18.95
2022-11-13T13:55:36.063Z,18.94
2022-11-13T14:01:18.436Z,18.89
2022-11-13T14:06:52.820Z,18.86
2022-11-13T14:12:20.155Z,18.80
2022-11-13T14:17:41.797Z,18.75
2022-11-13T14:23:03.600Z,18.71
2022-11-13T14:28:28.997Z,18.68
2022-11-13T14:33:50.873Z,18.61
2022-11-13T14:39:33.090Z,18.64
2022-11-13T14:45:05.268Z,18.63
2022-11-13T14:50:28.976Z,18.63
2022-11-13T14:55:53.250Z,18.64
2022-11-13T15:01:20.872Z,18.64
2022-11-13T15:06:42.532Z,18.60
2022-11-13T15:12:04.336Z,18.56
2022-11-13T15:17:26.047Z,18.54
2022-11-13T15:22:48.035Z,18.51
2022-11-13T15:28:09.815Z,18.47
2022-11-13T15:33:31.638Z,18.44
2022-11-13T15:38:53.668Z,18.42
2022-11-13T15:44:15.835Z,18.38
2022-11-13T15:49:37.616Z,18.45
2022-11-13T15:55:01.470Z,18.73
2022-11-13T16:00:25.782Z,19.07
2022-11-13T16:05:47.496Z,19.31
2022-11-13T16:11:15.013Z,19.42
2022-11-13T16:16:40.930Z,19.44
2022-11-13T16:22:02.538Z,19.41
2022-11-13T16:27:33.099Z,19.36
2022-11-13T16:32:54.742Z,19.29
2022-11-13T16:38:16.399Z,19.21
2022-11-13T16:43:38.521Z,19.14
2022-11-13T16:49:00.673Z,19.06
2022-11-13T16:54:22.618Z,19.00
2022-11-13T16:59:44.610Z,18.97
2022-11-13T17:05:06.756Z,18.93
2022-11-13T17:10:32.858Z,18.92
2022-11-13T17:21:17.221Z,18.92
2022-11-13T17:26:38.857Z,18.93
2022-11-13T17:32:00.598Z,18.93
2022-11-13T17:37:25.136Z,18.97
2022-11-13T17:42:48.637Z,18.99
2022-11-13T17:48:10.557Z,19.05
2022-11-13T17:53:33.189Z,19.11
2022-11-13T17:58:54.855Z,19.14
2022-11-13T18:04:16.475Z,19.16
2022-11-13T18:09:38.302Z,19.22
2022-11-13T18:14:59.919Z,19.45
2022-11-13T18:20:21.643Z,19.79
2022-11-13T18:25:43.634Z,20.10
2022-11-13T18:31:10.607Z,20.37
2022-11-13T18:36:33.306Z,20.59
2022-11-13T18:41:59.276Z,20.79
2022-11-13T18:47:23.702Z,20.96
2022-11-13T18:52:45.422Z,21.08
2022-11-13T18:58:07.057Z,21.15
2022-11-13T19:03:29.108Z,21.13
2022-11-13T19:09:03.265Z,21.11
2022-11-13T19:14:24.948Z,21.02
2022-11-13T19:19:46.608Z,20.95
2022-11-13T19:25:08.638Z,20.86
2022-11-13T19:30:30.586Z,20.79
2022-11-13T19:35:54.446Z,20.72
2022-11-13T19:41:16.130Z,20.66
2022-11-13T19:46:37.951Z,20.57
2022-11-13T19:51:59.625Z,20.52
2022-11-13T19:57:21.307Z,20.46
2022-11-13T20:02:43.191Z,20.41
2022-11-13T20:08:05.163Z,20.36
2022-11-13T20:13:26.872Z,20.33
2022-11-13T20:18:48.819Z,20.31
2022-11-13T20:24:10.570Z,20.28
2022-11-13T20:29:34.882Z,20.31
2022-11-13T20:34:56.551Z,20.40
2022-11-13T20:40:18.438Z,20.53
2022-11-13T20:45:40.153Z,20.69
2022-11-13T20:51:19.640Z,20.83
2022-11-13T20:56:41.394Z,20.94
2022-11-13T21:02:03.135Z,20.97
2022-11-13T21:07:24.969Z,21.00
2022-11-13T21:12:46.685Z,20.97
2022-11-13T21:18:08.476Z,20.89
2022-11-13T21:23:30.327Z,20.79
2022-11-13T21:28:56.810Z,20.69
2022-11-13T21:34:18.548Z,20.57
2022-11-13T21:39:40.228Z,20.48
2022-11-13T21:45:01.929Z,20.38
2022-11-13T21:50:23.668Z,20.29
2022-11-13T21:55:51.705Z,20.21
2022-11-13T22:01:13.897Z,20.10
2022-11-13T22:06:36.580Z,20.02
2022-11-13T22:11:58.415Z,19.93
2022-11-13T22:17:20.047Z,19.84
2022-11-13T22:22:41.681Z,19.76
2022-11-13T22:28:03.408Z,19.68
2022-11-13T22:33:33.075Z,19.61
2022-11-13T22:38:55.703Z,19.52
2022-11-13T22:44:17.410Z,19.46
2022-11-13T22:49:39.074Z,19.42
2022-11-13T22:55:01.238Z,19.36
2022-11-13T23:00:23.080Z,19.31
2022-11-13T23:05:44.795Z,19.27
2022-11-13T23:11:18.023Z,19.21
2022-11-13T23:16:39.858Z,19.17
2022-11-13T23:22:01.507Z,19.15
2022-11-13T23:27:23.276Z,19.11
2022-11-13T23:32:44.942Z,19.07
2022-11-13T23:38:06.686Z,19.05
2022-11-13T23:43:53.944Z,19.04
2022-11-13T23:49:10.829Z,19.01
2022-11-13T23:54:32.527Z,18.98
2022-11-13T23:59:54.360Z,18.95
